sensor_id;sensor_type;location;lat;lon;timestamp;pressure;altitude;pressure_sealevel;temperature;humidity
75513;BME280;64090;49.770;18.760;2024-02-21T00:00:20;98366.54;;;3.98;97.75
75513;BME280;64090;49.770;18.760;2024-02-21T00:03:43;98370.13;;;3.96;97.59
75513;BME280;64090;49.770;18.760;2024-02-21T00:06:47;98367.65;;;3.94;97.58
75513;BME280;64090;49.770;18.760;2024-02-21T00:09:49;98362.05;;;3.92;97.62
75513;BME280;64090;49.770;18.760;2024-02-21T00:12:53;98363.95;;;3.90;97.36
75513;BME280;64090;49.770;18.760;2024-02-21T00:15:56;98358.55;;;3.88;97.37
75513;BME280;64090;49.770;18.760;2024-02-21T00:23:06;98349.21;;;3.83;97.21
75513;BME280;64090;49.770;18.760;2024-02-21T00:26:10;98346.43;;;3.81;97.08
75513;BME280;64090;49.770;18.760;2024-02-21T00:29:12;98344.39;;;3.80;96.93
75513;BME280;64090;49.770;18.760;2024-02-21T00:32:15;98347.27;;;3.78;96.92
75513;BME280;64090;49.770;18.760;2024-02-21T00:35:19;98343.30;;;3.77;96.80
75513;BME280;64090;49.770;18.760;2024-02-21T00:38:22;98343.15;;;3.77;96.85
75513;BME280;64090;49.770;18.760;2024-02-21T00:41:25;98340.14;;;3.77;96.83
75513;BME280;64090;49.770;18.760;2024-02-21T00:44:28;98333.30;;;3.77;96.87
75513;BME280;64090;49.770;18.760;2024-02-21T00:47:31;98332.83;;;3.79;96.79
75513;BME280;64090;49.770;18.760;2024-02-21T00:50:34;98326.56;;;3.80;96.93
75513;BME280;64090;49.770;18.760;2024-02-21T00:53:37;98323.11;;;3.80;97.19
75513;BME280;64090;49.770;18.760;2024-02-21T00:56:41;98321.41;;;3.79;97.14
75513;BME280;64090;49.770;18.760;2024-02-21T00:59:44;98315.60;;;3.76;97.15
75513;BME280;64090;49.770;18.760;2024-02-21T01:02:46;98309.20;;;3.69;96.91
75513;BME280;64090;49.770;18.760;2024-02-21T01:05:52;98311.90;;;3.65;96.87
75513;BME280;64090;49.770;18.760;2024-02-21T01:08:55;98309.66;;;3.59;97.15
75513;BME280;64090;49.770;18.760;2024-02-21T01:11:58;98310.96;;;3.54;97.18
75513;BME280;64090;49.770;18.760;2024-02-21T01:15:03;98310.59;;;3.51;97.21
75513;BME280;64090;49.770;18.760;2024-02-21T01:18:07;98309.06;;;3.49;97.48
75513;BME280;64090;49.770;18.760;2024-02-21T01:21:10;98305.61;;;3.46;97.36
75513;BME280;64090;49.770;18.760;2024-02-21T01:24:13;98300.92;;;3.44;97.19
75513;BME280;64090;49.770;18.760;2024-02-21T01:27:17;98297.94;;;3.42;97.10
75513;BME280;64090;49.770;18.760;2024-02-21T01:30:20;98287.36;;;3.39;97.10
75513;BME280;64090;49.770;18.760;2024-02-21T01:33:23;98287.59;;;3.37;97.19
75513;BME280;64090;49.770;18.760;2024-02-21T01:36:26;98286.52;;;3.33;97.41
75513;BME280;64090;49.770;18.760;2024-02-21T01:39:29;98284.25;;;3.31;97.36
75513;BME280;64090;49.770;18.760;2024-02-21T01:42:32;98287.30;;;3.30;97.45
75513;BME280;64090;49.770;18.760;2024-02-21T01:45:35;98286.85;;;3.30;97.52
75513;BME280;64090;49.770;18.760;2024-02-21T01:48:38;98283.39;;;3.29;97.45
75513;BME280;64090;49.770;18.760;2024-02-21T01:51:41;98278.41;;;3.30;97.38
75513;BME280;64090;49.770;18.760;2024-02-21T01:54:45;98275.20;;;3.31;97.22
75513;BME280;64090;49.770;18.760;2024-02-21T01:57:49;98270.24;;;3.31;96.99
75513;BME280;64090;49.770;18.760;2024-02-21T02:00:53;98269.48;;;3.30;97.25
75513;BME280;64090;49.770;18.760;2024-02-21T02:03:59;98267.55;;;3.30;97.36
75513;BME280;64090;49.770;18.760;2024-02-21T02:07:03;98265.75;;;3.29;97.30
75513;BME280;64090;49.770;18.760;2024-02-21T02:10:08;98267.88;;;3.28;97.38
75513;BME280;64090;49.770;18.760;2024-02-21T02:13:13;98265.48;;;3.28;97.37
75513;BME280;64090;49.770;18.760;2024-02-21T02:16:16;98268.59;;;3.28;97.55
75513;BME280;64090;49.770;18.760;2024-02-21T02:19:19;98265.62;;;3.32;97.39
75513;BME280;64090;49.770;18.760;2024-02-21T02:22:28;98262.94;;;3.36;97.10
75513;BME280;64090;49.770;18.760;2024-02-21T02:25:31;98260.00;;;3.39;97.15
75513;BME280;64090;49.770;18.760;2024-02-21T02:28:34;98254.61;;;3.42;97.00
75513;BME280;64090;49.770;18.760;2024-02-21T02:31:37;98250.18;;;3.45;96.88
75513;BME280;64090;49.770;18.760;2024-02-21T02:34:41;98244.08;;;3.46;96.69
75513;BME280;64090;49.770;18.760;2024-02-21T02:37:50;98241.95;;;3.47;96.57
75513;BME280;64090;49.770;18.760;2024-02-21T02:40:54;98241.34;;;3.48;96.57
75513;BME280;64090;49.770;18.760;2024-02-21T02:43:57;98233.88;;;3.47;96.51
75513;BME280;64090;49.770;18.760;2024-02-21T02:47:00;98240.30;;;3.46;96.46
75513;BME280;64090;49.770;18.760;2024-02-21T02:50:03;98241.34;;;3.45;96.36
75513;BME280;64090;49.770;18.760;2024-02-21T02:53:07;98241.98;;;3.46;96.31
75513;BME280;64090;49.770;18.760;2024-02-21T02:56:16;98240.21;;;3.46;96.27
75513;BME280;64090;49.770;18.760;2024-02-21T02:59:19;98234.90;;;3.47;96.28
75513;BME280;64090;49.770;18.760;2024-02-21T03:06:33;98228.42;;;3.51;96.20
75513;BME280;64090;49.770;18.760;2024-02-21T03:09:37;98233.94;;;3.50;96.12
75513;BME280;64090;49.770;18.760;2024-02-21T03:12:40;98233.29;;;3.51;96.03
75513;BME280;64090;49.770;18.760;2024-02-21T03:15:43;98233.06;;;3.52;95.91
75513;BME280;64090;49.770;18.760;2024-02-21T03:18:46;98229.28;;;3.51;95.85
75513;BME280;64090;49.770;18.760;2024-02-21T03:21:49;98230.01;;;3.51;95.89
75513;BME280;64090;49.770;18.760;2024-02-21T03:24:53;98227.29;;;3.50;96.03
75513;BME280;64090;49.770;18.760;2024-02-21T03:27:55;98228.33;;;3.50;96.08
75513;BME280;64090;49.770;18.760;2024-02-21T03:30:58;98229.38;;;3.48;96.18
75513;BME280;64090;49.770;18.760;2024-02-21T03:34:02;98228.28;;;3.47;96.23
75513;BME280;64090;49.770;18.760;2024-02-21T03:37:05;98222.99;;;3.47;96.35
75513;BME280;64090;49.770;18.760;2024-02-21T03:40:09;98218.14;;;3.45;96.32
75513;BME280;64090;49.770;18.760;2024-02-21T03:43:12;98219.64;;;3.40;96.14
75513;BME280;64090;49.770;18.760;2024-02-21T03:46:15;98215.55;;;3.35;96.15
75513;BME280;64090;49.770;18.760;2024-02-21T03:49:18;98215.92;;;3.33;96.35
75513;BME280;64090;49.770;18.760;2024-02-21T03:52:21;98219.35;;;3.32;96.37
75513;BME280;64090;49.770;18.760;2024-02-21T03:55:25;98220.99;;;3.30;96.58
75513;BME280;64090;49.770;18.760;2024-02-21T03:58:28;98221.05;;;3.29;96.61
75513;BME280;64090;49.770;18.760;2024-02-21T04:01:31;98219.67;;;3.29;96.70
75513;BME280;64090;49.770;18.760;2024-02-21T04:04:35;98220.75;;;3.29;96.66
75513;BME280;64090;49.770;18.760;2024-02-21T04:07:40;98213.27;;;3.28;96.63
75513;BME280;64090;49.770;18.760;2024-02-21T04:10:44;98210.47;;;3.28;96.53
75513;BME280;64090;49.770;18.760;2024-02-21T04:13:47;98209.16;;;3.29;96.55
75513;BME280;64090;49.770;18.760;2024-02-21T04:16:52;98207.36;;;3.29;96.30
75513;BME280;64090;49.770;18.760;2024-02-21T04:20:04;98206.02;;;3.29;96.20
75513;BME280;64090;49.770;18.760;2024-02-21T04:23:11;98203.88;;;3.25;96.12
75513;BME280;64090;49.770;18.760;2024-02-21T04:26:14;98200.98;;;3.23;96.12
75513;BME280;64090;49.770;18.760;2024-02-21T04:29:17;98210.77;;;3.19;96.04
75513;BME280;64090;49.770;18.760;2024-02-21T04:32:20;98216.52;;;3.14;95.90
75513;BME280;64090;49.770;18.760;2024-02-21T04:35:24;98215.50;;;3.08;95.94
75513;BME280;64090;49.770;18.760;2024-02-21T04:38:27;98217.94;;;3.03;96.14
75513;BME280;64090;49.770;18.760;2024-02-21T04:41:31;98217.25;;;2.99;96.09
75513;BME280;64090;49.770;18.760;2024-02-21T04:44:34;98210.83;;;2.95;96.08
75513;BME280;64090;49.770;18.760;2024-02-21T04:47:37;98210.04;;;2.94;96.07
75513;BME280;64090;49.770;18.760;2024-02-21T04:50:44;98205.88;;;2.93;96.26
75513;BME280;64090;49.770;18.760;2024-02-21T04:53:47;98204.86;;;2.93;96.26
75513;BME280;64090;49.770;18.760;2024-02-21T04:56:50;98203.68;;;2.92;96.36
75513;BME280;64090;49.770;18.760;2024-02-21T04:59:55;98197.32;;;2.93;96.32
75513;BME280;64090;49.770;18.760;2024-02-21T05:02:58;98194.40;;;2.94;96.27
75513;BME280;64090;49.770;18.760;2024-02-21T05:06:02;98196.62;;;2.95;96.22
75513;BME280;64090;49.770;18.760;2024-02-21T05:09:06;98194.66;;;2.95;96.25
75513;BME280;64090;49.770;18.760;2024-02-21T05:12:09;98201.54;;;2.96;96.37
75513;BME280;64090;49.770;18.760;2024-02-21T05:15:12;98188.10;;;2.96;96.45
75513;BME280;64090;49.770;18.760;2024-02-21T05:18:16;98179.68;;;2.94;96.33
75513;BME280;64090;49.770;18.760;2024-02-21T05:21:19;98176.98;;;2.94;96.12
75513;BME280;64090;49.770;18.760;2024-02-21T05:24:22;98178.64;;;2.93;96.23
75513;BME280;64090;49.770;18.760;2024-02-21T05:27:28;98178.58;;;2.93;96.33
75513;BME280;64090;49.770;18.760;2024-02-21T05:30:33;98183.39;;;2.94;96.33
75513;BME280;64090;49.770;18.760;2024-02-21T05:33:36;98181.48;;;2.98;96.30
75513;BME280;64090;49.770;18.760;2024-02-21T05:36:39;98183.47;;;3.01;96.27
75513;BME280;64090;49.770;18.760;2024-02-21T05:39:43;98184.77;;;3.03;96.22
75513;BME280;64090;49.770;18.760;2024-02-21T05:42:46;98181.98;;;3.06;96.07
75513;BME280;64090;49.770;18.760;2024-02-21T05:45:49;98182.52;;;3.07;96.01
75513;BME280;64090;49.770;18.760;2024-02-21T05:48:53;98185.11;;;3.09;96.06
75513;BME280;64090;49.770;18.760;2024-02-21T05:51:56;98184.70;;;3.12;96.10
75513;BME280;64090;49.770;18.760;2024-02-21T05:54:59;98182.09;;;3.15;95.96
75513;BME280;64090;49.770;18.760;2024-02-21T05:58:02;98178.83;;;3.18;95.97
75513;BME280;64090;49.770;18.760;2024-02-21T06:01:06;98180.66;;;3.21;95.99
75513;BME280;64090;49.770;18.760;2024-02-21T06:04:12;98179.27;;;3.24;96.06
75513;BME280;64090;49.770;18.760;2024-02-21T06:07:15;98179.81;;;3.30;95.97
75513;BME280;64090;49.770;18.760;2024-02-21T06:10:18;98177.89;;;3.37;95.84
75513;BME280;64090;49.770;18.760;2024-02-21T06:13:23;98173.60;;;3.45;95.84
75513;BME280;64090;49.770;18.760;2024-02-21T06:16:26;98177.95;;;3.53;95.76
75513;BME280;64090;49.770;18.760;2024-02-21T06:19:29;98175.64;;;3.60;95.70
75513;BME280;64090;49.770;18.760;2024-02-21T06:22:32;98179.39;;;3.66;95.59
75513;BME280;64090;49.770;18.760;2024-02-21T06:25:35;98180.04;;;3.73;95.64
75513;BME280;64090;49.770;18.760;2024-02-21T06:28:38;98178.50;;;3.77;95.49
75513;BME280;64090;49.770;18.760;2024-02-21T06:31:41;98175.08;;;3.84;95.44
75513;BME280;64090;49.770;18.760;2024-02-21T06:34:44;98178.87;;;3.90;95.28
75513;BME280;64090;49.770;18.760;2024-02-21T06:37:47;98179.00;;;3.97;95.16
75513;BME280;64090;49.770;18.760;2024-02-21T06:40:54;98179.83;;;4.06;95.22
75513;BME280;64090;49.770;18.760;2024-02-21T06:43:57;98175.30;;;4.15;95.05
75513;BME280;64090;49.770;18.760;2024-02-21T06:47:00;98170.83;;;4.23;95.08
75513;BME280;64090;49.770;18.760;2024-02-21T06:50:04;98174.67;;;4.30;95.12
75513;BME280;64090;49.770;18.760;2024-02-21T06:53:07;98174.70;;;4.35;95.02
75513;BME280;64090;49.770;18.760;2024-02-21T06:56:10;98172.90;;;4.41;94.94
75513;BME280;64090;49.770;18.760;2024-02-21T06:59:13;98172.82;;;4.45;94.99
75513;BME280;64090;49.770;18.760;2024-02-21T07:02:19;98170.17;;;4.48;94.61
75513;BME280;64090;49.770;18.760;2024-02-21T07:05:22;98171.75;;;4.54;94.68
75513;BME280;64090;49.770;18.760;2024-02-21T07:08:25;98171.36;;;4.61;94.51
75513;BME280;64090;49.770;18.760;2024-02-21T07:15:41;98168.52;;;4.86;93.61
75513;BME280;64090;49.770;18.760;2024-02-21T07:18:44;98167.19;;;4.98;93.58
75513;BME280;64090;49.770;18.760;2024-02-21T07:21:47;98168.29;;;5.13;93.37
75513;BME280;64090;49.770;18.760;2024-02-21T07:24:50;98170.73;;;5.27;92.75
75513;BME280;64090;49.770;18.760;2024-02-21T07:27:54;98169.91;;;5.39;92.33
75513;BME280;64090;49.770;18.760;2024-02-21T07:30:59;98171.22;;;5.49;91.74
75513;BME280;64090;49.770;18.760;2024-02-21T07:34:02;98163.10;;;5.56;90.70
75513;BME280;64090;49.770;18.760;2024-02-21T07:37:05;98160.30;;;5.67;90.78
75513;BME280;64090;49.770;18.760;2024-02-21T07:40:15;98157.88;;;5.77;89.81
75513;BME280;64090;49.770;18.760;2024-02-21T07:43:18;98157.48;;;5.89;89.87
75513;BME280;64090;49.770;18.760;2024-02-21T07:46:21;98158.80;;;5.95;89.43
75513;BME280;64090;49.770;18.760;2024-02-21T07:49:25;98156.33;;;5.98;88.99
75513;BME280;64090;49.770;18.760;2024-02-21T07:52:28;98150.06;;;5.98;88.61
75513;BME280;64090;49.770;18.760;2024-02-21T07:55:31;98150.09;;;5.97;88.41
75513;BME280;64090;49.770;18.760;2024-02-21T07:58:34;98148.90;;;5.99;88.61
75513;BME280;64090;49.770;18.760;2024-02-21T08:01:37;98147.19;;;5.97;88.42
75513;BME280;64090;49.770;18.760;2024-02-21T08:04:40;98146.95;;;5.97;88.42
75513;BME280;64090;49.770;18.760;2024-02-21T08:07:43;98147.61;;;6.02;88.57
75513;BME280;64090;49.770;18.760;2024-02-21T08:10:46;98144.46;;;6.13;88.64
75513;BME280;64090;49.770;18.760;2024-02-21T08:13:50;98137.02;;;6.28;87.94
75513;BME280;64090;49.770;18.760;2024-02-21T08:16:53;98134.21;;;6.46;87.49
75513;BME280;64090;49.770;18.760;2024-02-21T08:19:57;98135.30;;;6.62;87.60
75513;BME280;64090;49.770;18.760;2024-02-21T08:23:00;98130.02;;;6.66;86.54
75513;BME280;64090;49.770;18.760;2024-02-21T08:26:03;98128.58;;;6.62;84.79
75513;BME280;64090;49.770;18.760;2024-02-21T08:29:07;98126.14;;;6.63;84.54
75513;BME280;64090;49.770;18.760;2024-02-21T08:32:10;98125.87;;;6.76;85.10
75513;BME280;64090;49.770;18.760;2024-02-21T08:35:13;98123.77;;;6.89;84.71
75513;BME280;64090;49.770;18.760;2024-02-21T08:38:16;98120.20;;;7.07;83.77
75513;BME280;64090;49.770;18.760;2024-02-21T08:41:19;98114.40;;;7.21;83.62
75513;BME280;64090;49.770;18.760;2024-02-21T08:44:25;98117.98;;;7.33;84.41
75513;BME280;64090;49.770;18.760;2024-02-21T08:47:29;98111.30;;;7.39;84.32
75513;BME280;64090;49.770;18.760;2024-02-21T08:50:32;98105.39;;;7.51;83.76
75513;BME280;64090;49.770;18.760;2024-02-21T08:53:35;98100.60;;;7.63;83.40
75513;BME280;64090;49.770;18.760;2024-02-21T08:56:38;98100.65;;;7.70;82.97
75513;BME280;64090;49.770;18.760;2024-02-21T09:03:18;98094.06;;;7.86;81.40
75513;BME280;64090;49.770;18.760;2024-02-21T09:06:22;98095.98;;;7.91;81.60
75513;BME280;64090;49.770;18.760;2024-02-21T09:09:25;98095.05;;;8.02;81.81
75513;BME280;64090;49.770;18.760;2024-02-21T09:12:31;98092.10;;;8.13;80.83
75513;BME280;64090;49.770;18.760;2024-02-21T09:15:34;98095.63;;;8.21;80.55
75513;BME280;64090;49.770;18.760;2024-02-21T09:18:37;98094.36;;;8.12;80.69
75513;BME280;64090;49.770;18.760;2024-02-21T09:21:40;98099.42;;;7.94;79.34
75513;BME280;64090;49.770;18.760;2024-02-21T09:24:44;98095.52;;;7.87;80.08
75513;BME280;64090;49.770;18.760;2024-02-21T09:27:47;98093.81;;;7.93;79.94
75513;BME280;64090;49.770;18.760;2024-02-21T09:30:50;98097.17;;;8.09;80.20
75513;BME280;64090;49.770;18.760;2024-02-21T09:33:53;98104.03;;;8.27;79.17
75513;BME280;64090;49.770;18.760;2024-02-21T09:36:56;98099.48;;;8.58;78.15
75513;BME280;64090;49.770;18.760;2024-02-21T09:39:59;98101.13;;;9.05;78.11
75513;BME280;64090;49.770;18.760;2024-02-21T09:43:03;98097.11;;;9.37;76.68
75513;BME280;64090;49.770;18.760;2024-02-21T09:46:08;98093.52;;;9.41;76.32
75513;BME280;64090;49.770;18.760;2024-02-21T09:49:30;98095.27;;;9.36;74.63
75513;BME280;64090;49.770;18.760;2024-02-21T09:52:37;98092.55;;;9.48;75.95
75513;BME280;64090;49.770;18.760;2024-02-21T09:55:40;98094.83;;;9.57;75.03
75513;BME280;64090;49.770;18.760;2024-02-21T09:58:47;98097.66;;;9.67;73.15
75513;BME280;64090;49.770;18.760;2024-02-21T10:01:58;98097.11;;;9.95;74.75
75513;BME280;64090;49.770;18.760;2024-02-21T10:05:05;98101.22;;;10.29;73.61
75513;BME280;64090;49.770;18.760;2024-02-21T10:08:14;98094.88;;;10.51;73.86
75513;BME280;64090;49.770;18.760;2024-02-21T10:11:24;98090.12;;;10.56;71.40
75513;BME280;64090;49.770;18.760;2024-02-21T10:14:27;98084.77;;;10.59;71.45
75513;BME280;64090;49.770;18.760;2024-02-21T10:17:32;98082.48;;;10.50;70.39
75513;BME280;64090;49.770;18.760;2024-02-21T10:20:35;98083.12;;;10.55;72.10
75513;BME280;64090;49.770;18.760;2024-02-21T10:23:46;98078.19;;;10.75;71.96
75513;BME280;64090;49.770;18.760;2024-02-21T10:26:58;98074.61;;;11.01;70.03
75513;BME280;64090;49.770;18.760;2024-02-21T10:30:01;98073.25;;;11.25;69.03
75513;BME280;64090;49.770;18.760;2024-02-21T10:37:00;98072.36;;;11.16;66.73
75513;BME280;64090;49.770;18.760;2024-02-21T10:40:03;98064.61;;;11.11;66.98
75513;BME280;64090;49.770;18.760;2024-02-21T10:43:12;98061.13;;;11.09;66.01
75513;BME280;64090;49.770;18.760;2024-02-21T10:46:18;98056.69;;;11.12;66.41
75513;BME280;64090;49.770;18.760;2024-02-21T10:49:26;98056.19;;;11.13;66.60
75513;BME280;64090;49.770;18.760;2024-02-21T10:52:57;98058.85;;;11.17;66.66
75513;BME280;64090;49.770;18.760;2024-02-21T10:56:30;98052.27;;;11.21;65.46
75513;BME280;64090;49.770;18.760;2024-02-21T10:59:34;98052.57;;;11.26;66.47
75513;BME280;64090;49.770;18.760;2024-02-21T11:02:38;98054.98;;;11.21;65.04
75513;BME280;64090;49.770;18.760;2024-02-21T11:05:43;98047.21;;;11.28;66.84
75513;BME280;64090;49.770;18.760;2024-02-21T11:09:05;98040.58;;;11.23;66.22
75513;BME280;64090;49.770;18.760;2024-02-21T11:12:08;98035.29;;;11.17;65.84
75513;BME280;64090;49.770;18.760;2024-02-21T11:15:11;98036.06;;;11.07;65.24
75513;BME280;64090;49.770;18.760;2024-02-21T11:18:23;98035.39;;;10.97;65.49
75513;BME280;64090;49.770;18.760;2024-02-21T11:21:32;98028.22;;;10.84;66.06
75513;BME280;64090;49.770;18.760;2024-02-21T11:24:36;98023.98;;;10.65;66.39
75513;BME280;64090;49.770;18.760;2024-02-21T11:27:46;98023.01;;;10.56;67.23
75513;BME280;64090;49.770;18.760;2024-02-21T11:30:49;98017.90;;;10.58;67.50
75513;BME280;64090;49.770;18.760;2024-02-21T11:33:54;98014.90;;;10.46;66.59
75513;BME280;64090;49.770;18.760;2024-02-21T11:36:57;98009.92;;;10.46;67.57
75513;BME280;64090;49.770;18.760;2024-02-21T11:40:00;98010.56;;;10.45;67.66
75513;BME280;64090;49.770;18.760;2024-02-21T11:43:04;98004.59;;;10.35;67.54
75513;BME280;64090;49.770;18.760;2024-02-21T11:46:06;97999.66;;;10.39;67.12
75513;BME280;64090;49.770;18.760;2024-02-21T11:49:10;97996.67;;;10.32;66.09
75513;BME280;64090;49.770;18.760;2024-02-21T11:52:13;97994.70;;;10.35;66.65
75513;BME280;64090;49.770;18.760;2024-02-21T11:55:18;97992.39;;;10.27;64.81
75513;BME280;64090;49.770;18.760;2024-02-21T11:58:21;97992.38;;;10.10;65.80
75513;BME280;64090;49.770;18.760;2024-02-21T12:01:24;97987.41;;;9.97;66.32
75513;BME280;64090;49.770;18.760;2024-02-21T12:04:27;97988.31;;;9.76;65.68
75513;BME280;64090;49.770;18.760;2024-02-21T12:07:31;97983.91;;;9.51;66.76
75513;BME280;64090;49.770;18.760;2024-02-21T12:10:36;97981.69;;;9.43;67.59
75513;BME280;64090;49.770;18.760;2024-02-21T12:13:39;97985.93;;;9.39;67.97
75513;BME280;64090;49.770;18.760;2024-02-21T12:16:42;97984.73;;;9.31;68.17
75513;BME280;64090;49.770;18.760;2024-02-21T12:19:50;97980.98;;;9.15;68.89
75513;BME280;64090;49.770;18.760;2024-02-21T12:22:54;97981.30;;;9.00;69.65
75513;BME280;64090;49.770;18.760;2024-02-21T12:25:59;97976.35;;;9.11;70.26
75513;BME280;64090;49.770;18.760;2024-02-21T12:29:02;97979.81;;;9.18;70.95
75513;BME280;64090;49.770;18.760;2024-02-21T12:32:05;97974.23;;;9.16;71.77
75513;BME280;64090;49.770;18.760;2024-02-21T12:35:08;97975.71;;;9.04;72.92
75513;BME280;64090;49.770;18.760;2024-02-21T12:38:11;97968.45;;;8.93;72.75
75513;BME280;64090;49.770;18.760;2024-02-21T12:41:16;97962.73;;;8.79;73.15
75513;BME280;64090;49.770;18.760;2024-02-21T12:44:19;97965.95;;;8.67;73.70
75513;BME280;64090;49.770;18.760;2024-02-21T12:47:22;97960.48;;;8.60;73.96
75513;BME280;64090;49.770;18.760;2024-02-21T12:50:27;97960.62;;;8.47;74.46
75513;BME280;64090;49.770;18.760;2024-02-21T12:53:30;97962.73;;;8.35;74.97
75513;BME280;64090;49.770;18.760;2024-02-21T12:56:35;97959.39;;;8.31;75.66
75513;BME280;64090;49.770;18.760;2024-02-21T13:00:02;97955.83;;;8.22;76.11
75513;BME280;64090;49.770;18.760;2024-02-21T13:03:06;97948.17;;;8.23;76.56
75513;BME280;64090;49.770;18.760;2024-02-21T13:06:09;97942.38;;;8.22;77.14
75513;BME280;64090;49.770;18.760;2024-02-21T13:09:13;97938.85;;;8.24;76.97
75513;BME280;64090;49.770;18.760;2024-02-21T13:12:16;97931.65;;;8.22;77.87
75513;BME280;64090;49.770;18.760;2024-02-21T13:15:19;97932.70;;;8.17;78.71
75513;BME280;64090;49.770;18.760;2024-02-21T13:18:22;97932.05;;;8.07;78.61
75513;BME280;64090;49.770;18.760;2024-02-21T13:21:26;97925.83;;;7.95;79.06
75513;BME280;64090;49.770;18.760;2024-02-21T13:24:30;97919.88;;;7.89;79.38
75513;BME280;64090;49.770;18.760;2024-02-21T13:27:33;97921.36;;;7.87;79.19
75513;BME280;64090;49.770;18.760;2024-02-21T13:30:36;97924.52;;;7.87;78.87
75513;BME280;64090;49.770;18.760;2024-02-21T13:33:39;97925.13;;;7.84;78.55
75513;BME280;64090;49.770;18.760;2024-02-21T13:36:43;97927.40;;;7.82;78.91
75513;BME280;64090;49.770;18.760;2024-02-21T13:39:46;97926.07;;;7.77;79.09
75513;BME280;64090;49.770;18.760;2024-02-21T13:42:49;97924.90;;;7.75;79.70
75513;BME280;64090;49.770;18.760;2024-02-21T13:45:58;97923.21;;;7.70;80.04
75513;BME280;64090;49.770;18.760;2024-02-21T13:49:03;97919.27;;;7.62;80.94
75513;BME280;64090;49.770;18.760;2024-02-21T13:52:08;97915.02;;;7.60;80.82
75513;BME280;64090;49.770;18.760;2024-02-21T13:55:11;97913.30;;;7.58;80.61
75513;BME280;64090;49.770;18.760;2024-02-21T13:58:15;97912.84;;;7.49;81.92
75513;BME280;64090;49.770;18.760;2024-02-21T14:01:18;97911.45;;;7.37;82.15
75513;BME280;64090;49.770;18.760;2024-02-21T14:04:21;97903.46;;;7.31;81.90
75513;BME280;64090;49.770;18.760;2024-02-21T14:07:24;97897.73;;;7.26;82.20
75513;BME280;64090;49.770;18.760;2024-02-21T14:10:27;97894.41;;;7.17;82.56
75513;BME280;64090;49.770;18.760;2024-02-21T14:13:31;97891.59;;;7.11;82.67
75513;BME280;64090;49.770;18.760;2024-02-21T14:16:34;97887.78;;;7.04;82.97
75513;BME280;64090;49.770;18.760;2024-02-21T14:19:37;97885.86;;;7.01;83.32
75513;BME280;64090;49.770;18.760;2024-02-21T14:22:40;97876.70;;;7.02;82.72
75513;BME280;64090;49.770;18.760;2024-02-21T14:25:43;97868.95;;;7.01;83.03
75513;BME280;64090;49.770;18.760;2024-02-21T14:28:46;97867.44;;;6.98;83.68
75513;BME280;64090;49.770;18.760;2024-02-21T14:31:49;97867.86;;;6.99;83.93
75513;BME280;64090;49.770;18.760;2024-02-21T14:34:52;97864.86;;;7.07;84.26
75513;BME280;64090;49.770;18.760;2024-02-21T14:37:55;97865.28;;;7.16;84.37
75513;BME280;64090;49.770;18.760;2024-02-21T14:41:04;97864.44;;;7.24;84.29
75513;BME280;64090;49.770;18.760;2024-02-21T14:44:07;97858.67;;;7.33;84.04
75513;BME280;64090;49.770;18.760;2024-02-21T14:47:12;97851.06;;;7.42;83.61
75513;BME280;64090;49.770;18.760;2024-02-21T14:50:15;97843.36;;;7.47;83.56
75513;BME280;64090;49.770;18.760;2024-02-21T14:53:18;97831.16;;;7.49;83.47
75513;BME280;64090;49.770;18.760;2024-02-21T14:56:21;97824.13;;;7.42;83.55
75513;BME280;64090;49.770;18.760;2024-02-21T14:59:25;97823.59;;;7.36;83.68
75513;BME280;64090;49.770;18.760;2024-02-21T15:02:37;97822.69;;;7.33;83.35
75513;BME280;64090;49.770;18.760;2024-02-21T15:05:39;97822.16;;;7.33;83.49
75513;BME280;64090;49.770;18.760;2024-02-21T15:08:43;97814.59;;;7.28;83.43
75513;BME280;64090;49.770;18.760;2024-02-21T15:11:46;97806.75;;;7.19;83.46
75513;BME280;64090;49.770;18.760;2024-02-21T15:14:52;97810.98;;;7.07;83.45
75513;BME280;64090;49.770;18.760;2024-02-21T15:17:55;97809.48;;;6.92;83.53
75513;BME280;64090;49.770;18.760;2024-02-21T15:20:58;97809.80;;;6.75;83.94
75513;BME280;64090;49.770;18.760;2024-02-21T15:24:01;97810.94;;;6.57;84.11
75513;BME280;64090;49.770;18.760;2024-02-21T15:27:04;97810.80;;;6.42;84.21
75513;BME280;64090;49.770;18.760;2024-02-21T15:30:08;97798.65;;;6.28;84.43
75513;BME280;64090;49.770;18.760;2024-02-21T15:33:11;97796.85;;;6.16;84.55
75513;BME280;64090;49.770;18.760;2024-02-21T15:36:14;97788.31;;;6.06;84.62
75513;BME280;64090;49.770;18.760;2024-02-21T15:39:18;97791.02;;;5.95;84.72
75513;BME280;64090;49.770;18.760;2024-02-21T15:42:21;97782.74;;;5.83;84.71
75513;BME280;64090;49.770;18.760;2024-02-21T15:45:24;97787.05;;;5.74;85.02
75513;BME280;64090;49.770;18.760;2024-02-21T15:48:27;97777.84;;;5.61;85.21
75513;BME280;64090;49.770;18.760;2024-02-21T15:51:30;97780.32;;;5.51;85.24
75513;BME280;64090;49.770;18.760;2024-02-21T15:54:33;97783.79;;;5.41;85.33
75513;BME280;64090;49.770;18.760;2024-02-21T15:57:36;97774.42;;;5.31;85.45
75513;BME280;64090;49.770;18.760;2024-02-21T16:00:39;97776.97;;;5.20;85.67
75513;BME280;64090;49.770;18.760;2024-02-21T16:03:42;97776.61;;;5.11;85.81
75513;BME280;64090;49.770;18.760;2024-02-21T16:06:45;97774.80;;;5.02;86.29
75513;BME280;64090;49.770;18.760;2024-02-21T16:09:55;97777.65;;;4.95;86.37
75513;BME280;64090;49.770;18.760;2024-02-21T16:13:18;97783.72;;;4.88;86.58
75513;BME280;64090;49.770;18.760;2024-02-21T16:16:21;97787.36;;;4.80;86.81
75513;BME280;64090;49.770;18.760;2024-02-21T16:19:24;97789.27;;;4.74;87.10
75513;BME280;64090;49.770;18.760;2024-02-21T16:22:28;97795.95;;;4.69;87.33
75513;BME280;64090;49.770;18.760;2024-02-21T16:25:32;97797.21;;;4.66;87.44
75513;BME280;64090;49.770;18.760;2024-02-21T16:28:36;97795.86;;;4.60;87.44
75513;BME280;64090;49.770;18.760;2024-02-21T16:31:39;97790.64;;;4.53;87.30
75513;BME280;64090;49.770;18.760;2024-02-21T16:34:42;97788.80;;;4.46;87.66